createdAt,value
2017-12-04T00:01:27.593Z,4.70
2017-12-04T00:03:55.037Z,5.80
2017-12-04T00:06:22.462Z,4.47
2017-12-04T00:08:49.889Z,5.50
2017-12-04T00:11:17.409Z,5.40
2017-12-04T00:13:44.841Z,6.37
2017-12-04T00:16:12.338Z,4.73
2017-12-04T00:18:39.837Z,6.60
2017-12-04T00:21:07.362Z,7.57
2017-12-04T00:23:34.784Z,6.47
2017-12-04T00:26:02.974Z,5.77
2017-12-04T00:28:30.406Z,5.57
2017-12-04T00:30:57.830Z,6.97
2017-12-04T00:33:25.285Z,5.93
2017-12-04T00:35:52.722Z,7.30
2017-12-04T00:38:20.201Z,6.30
2017-12-04T00:40:47.620Z,4.97
2017-12-04T00:43:15.817Z,5.13
2017-12-04T00:45:44.022Z,4.90
2017-12-04T00:48:11.462Z,6.10
2017-12-04T00:50:38.913Z,5.93
2017-12-04T00:53:06.406Z,5.70
2017-12-04T00:55:33.829Z,6.00
2017-12-04T00:58:02.165Z,5.60
2017-12-04T01:00:29.601Z,6.83
2017-12-04T01:02:57.026Z,7.20
2017-12-04T01:05:25.266Z,5.00
2017-12-04T01:07:52.757Z,6.20
2017-12-04T01:10:20.989Z,5.40
2017-12-04T01:12:48.412Z,8.77
2017-12-04T01:15:16.625Z,7.90
2017-12-04T01:17:44.043Z,5.30
2017-12-04T01:20:12.293Z,6.30
2017-12-04T01:22:39.829Z,6.40
2017-12-04T01:25:07.296Z,7.57
2017-12-04T01:27:34.773Z,6.40
2017-12-04T01:30:02.304Z,6.30
2017-12-04T01:32:29.782Z,5.20
2017-12-04T01:34:57.233Z,6.90
2017-12-04T01:37:24.702Z,6.07
2017-12-04T01:39:52.161Z,5.53
2017-12-04T01:42:19.577Z,5.43
2017-12-04T01:44:47.773Z,6.07
2017-12-04T01:47:15.189Z,5.27
2017-12-04T01:49:42.722Z,7.57
2017-12-04T01:52:10.142Z,5.43
2017-12-04T01:54:39.278Z,7.50
2017-12-04T01:57:06.697Z,4.30
2017-12-04T01:59:34.919Z,4.83
2017-12-04T02:02:02.341Z,3.73
2017-12-04T02:04:31.217Z,6.47
2017-12-04T02:06:58.637Z,5.60
2017-12-04T02:09:26.090Z,5.27
2017-12-04T02:11:53.561Z,5.97
2017-12-04T02:14:20.985Z,5.87
2017-12-04T02:16:48.413Z,7.60
2017-12-04T02:19:15.841Z,4.90
2017-12-04T02:21:43.270Z,6.20
2017-12-04T02:24:11.479Z,4.73
2017-12-04T02:26:38.893Z,5.17
2017-12-04T02:29:07.118Z,5.20
2017-12-04T02:31:34.582Z,5.23
2017-12-04T02:34:02.006Z,5.63
2017-12-04T02:36:30.193Z,7.03
2017-12-04T02:38:57.627Z,4.90
2017-12-04T02:41:25.814Z,7.03
2017-12-04T02:43:54.001Z,5.30
2017-12-04T02:46:21.493Z,6.23
2017-12-04T02:48:48.919Z,6.10
2017-12-04T02:51:17.133Z,4.73
2017-12-04T02:53:44.601Z,4.63
2017-12-04T02:56:12.038Z,4.80
2017-12-04T02:58:39.493Z,5.30
2017-12-04T03:01:06.922Z,4.33
2017-12-04T03:03:34.366Z,4.60
2017-12-04T03:06:01.790Z,5.03
2017-12-04T03:08:29.262Z,6.70
2017-12-04T03:10:56.721Z,4.97
2017-12-04T03:13:24.181Z,3.90
2017-12-04T03:15:51.646Z,5.53
2017-12-04T03:18:19.061Z,5.70
2017-12-04T03:20:47.257Z,5.37
2017-12-04T03:23:14.743Z,7.23
2017-12-04T03:25:42.170Z,3.53
2017-12-04T03:28:10.385Z,2.90
2017-12-04T03:30:37.832Z,3.97
2017-12-04T03:33:05.313Z,5.33
2017-12-04T03:35:32.769Z,4.77
2017-12-04T03:38:00.189Z,5.50
2017-12-04T03:40:28.390Z,5.90
2017-12-04T03:42:55.817Z,5.07
2017-12-04T03:45:24.014Z,4.00
2017-12-04T03:47:52.224Z,5.73
2017-12-04T03:50:19.661Z,4.83
2017-12-04T03:52:47.093Z,5.27
2017-12-04T03:55:15.285Z,4.53
2017-12-04T03:57:43.505Z,4.13
2017-12-04T04:00:10.966Z,7.00
2017-12-04T04:02:38.427Z,7.27
2017-12-04T04:05:05.886Z,5.60
2017-12-04T04:07:33.349Z,5.53
2017-12-04T04:10:00.770Z,4.93
2017-12-04T04:12:28.973Z,5.47
2017-12-04T04:14:56.454Z,5.40
2017-12-04T04:17:23.869Z,6.03
2017-12-04T04:19:52.062Z,4.00
2017-12-04T04:22:19.485Z,4.00
2017-12-04T04:24:47.010Z,5.07
2017-12-04T04:27:14.425Z,5.53
2017-12-04T04:29:42.631Z,5.83
2017-12-04T04:32:10.045Z,4.73
2017-12-04T04:34:37.474Z,4.50
2017-12-04T04:37:04.898Z,5.80
2017-12-04T04:39:32.389Z,6.10
2017-12-04T04:41:59.856Z,5.23
2017-12-04T04:44:27.270Z,5.10
2017-12-04T04:46:55.459Z,4.20
2017-12-04T04:49:23.665Z,5.07
2017-12-04T04:51:51.093Z,7.47
2017-12-04T04:54:19.281Z,4.03
2017-12-04T04:56:46.721Z,4.30
2017-12-04T04:59:14.121Z,5.17
2017-12-04T05:01:41.545Z,4.77
2017-12-04T05:04:09.765Z,5.30
2017-12-04T05:06:37.245Z,5.03
2017-12-04T05:09:04.697Z,6.13
2017-12-04T05:11:32.150Z,5.13
2017-12-04T05:13:59.570Z,4.37
2017-12-04T05:16:27.827Z,5.40
2017-12-04T05:18:56.011Z,3.53
2017-12-04T05:21:23.447Z,3.17
2017-12-04T05:23:50.861Z,4.90
2017-12-04T05:26:18.305Z,4.03
2017-12-04T05:28:46.530Z,3.50
2017-12-04T05:31:13.930Z,5.00
2017-12-04T05:33:42.877Z,4.40
2017-12-04T05:36:10.306Z,3.00
2017-12-04T05:38:38.493Z,3.67
2017-12-04T05:41:06.673Z,3.80
2017-12-04T05:43:34.259Z,5.07
2017-12-04T05:46:01.662Z,3.60
2017-12-04T05:48:29.085Z,4.17
2017-12-04T05:50:56.510Z,3.50
2017-12-04T05:53:24.726Z,4.70
2017-12-04T05:55:52.162Z,2.93
2017-12-04T05:58:19.577Z,3.70
2017-12-04T06:00:47.003Z,4.20
2017-12-04T06:03:14.573Z,4.13
2017-12-04T06:05:42.034Z,5.13
2017-12-04T06:08:09.482Z,4.73
2017-12-04T06:10:36.973Z,3.17
2017-12-04T06:13:04.505Z,3.03
2017-12-04T06:15:31.923Z,4.93
2017-12-04T06:17:59.433Z,4.03
2017-12-04T06:20:26.897Z,4.17
2017-12-04T06:22:54.328Z,2.67
2017-12-04T06:25:22.506Z,5.10
2017-12-04T06:27:50.807Z,3.10
2017-12-04T06:30:18.999Z,4.90
2017-12-04T06:32:46.427Z,3.23
2017-12-04T06:35:14.633Z,3.60
2017-12-04T06:37:42.061Z,2.23
2017-12-04T06:40:10.245Z,3.80
2017-12-04T06:42:37.676Z,3.83
2017-12-04T06:45:05.091Z,4.80
2017-12-04T06:47:32.513Z,2.57
2017-12-04T06:50:00.734Z,3.07
2017-12-04T06:52:28.166Z,3.20
2017-12-04T06:54:55.665Z,5.40
2017-12-04T06:57:23.138Z,3.23
2017-12-04T06:59:50.585Z,3.77
2017-12-04T07:02:18.021Z,3.67
2017-12-04T07:04:45.437Z,3.43
2017-12-04T07:07:12.963Z,3.10
2017-12-04T07:09:40.430Z,4.20
2017-12-04T07:12:07.897Z,4.00
2017-12-04T07:14:35.321Z,3.23
2017-12-04T07:17:02.765Z,3.47
2017-12-04T07:19:30.950Z,3.00
2017-12-04T07:21:59.166Z,3.53
2017-12-04T07:24:26.622Z,3.20
2017-12-04T07:26:54.075Z,2.93
2017-12-04T07:29:21.553Z,3.03
2017-12-04T07:31:48.974Z,4.17
2017-12-04T07:34:17.173Z,2.47
2017-12-04T07:36:44.605Z,3.17
2017-12-04T07:39:12.789Z,4.60
2017-12-04T07:41:41.009Z,2.43
2017-12-04T07:44:08.429Z,4.67
2017-12-04T07:46:36.649Z,2.43
2017-12-04T07:49:04.106Z,3.33
2017-12-04T07:51:31.533Z,4.00
2017-12-04T07:53:59.715Z,2.20
2017-12-04T07:56:27.141Z,2.47
2017-12-04T07:58:54.613Z,2.10
2017-12-04T08:01:22.809Z,3.37
2017-12-04T08:03:50.997Z,2.53
2017-12-04T08:06:18.429Z,2.60
2017-12-04T08:08:45.849Z,2.87
2017-12-04T08:11:13.269Z,2.80
2017-12-04T08:13:41.448Z,3.00
2017-12-04T08:16:08.883Z,2.40
2017-12-04T08:18:36.297Z,2.87
2017-12-04T08:21:03.714Z,3.07
2017-12-04T08:23:31.918Z,2.50
2017-12-04T08:25:59.349Z,3.33
2017-12-04T08:28:26.795Z,2.93
2017-12-04T08:30:54.209Z,3.57
2017-12-04T08:33:21.781Z,3.20
2017-12-04T08:35:49.209Z,4.37
2017-12-04T08:38:17.397Z,3.60
2017-12-04T08:40:44.817Z,2.83
2017-12-04T08:43:12.250Z,1.73
2017-12-04T08:45:39.697Z,4.70
2017-12-04T08:48:07.167Z,1.40
2017-12-04T08:50:34.622Z,2.40
2017-12-04T08:53:02.029Z,2.43
2017-12-04T08:55:29.551Z,3.30
2017-12-04T08:57:57.122Z,2.00
2017-12-04T09:00:24.549Z,3.60
2017-12-04T09:02:51.997Z,3.13
2017-12-04T09:05:25.230Z,2.90
2017-12-04T09:07:52.669Z,2.33
2017-12-04T09:10:20.118Z,3.13
2017-12-04T09:12:47.522Z,3.27
2017-12-04T09:15:14.941Z,2.20
2017-12-04T09:17:42.434Z,2.43
2017-12-04T09:20:09.858Z,2.83
2017-12-04T09:22:38.049Z,2.20
2017-12-04T09:25:05.537Z,2.40
2017-12-04T09:27:33.007Z,2.00
2017-12-04T09:30:00.417Z,1.87
2017-12-04T09:32:28.610Z,3.10
2017-12-04T09:34:56.098Z,3.20
2017-12-04T09:37:23.530Z,2.50
2017-12-04T09:39:50.950Z,2.90
2017-12-04T09:42:18.385Z,2.53
2017-12-04T09:44:45.819Z,2.40
2017-12-04T09:47:13.233Z,1.70
2017-12-04T09:49:40.763Z,1.80
2017-12-04T09:52:08.200Z,4.37
2017-12-04T09:54:36.400Z,1.90
2017-12-04T09:57:03.811Z,2.40
2017-12-04T09:59:32.005Z,1.70
2017-12-04T10:02:00.213Z,2.63
2017-12-04T10:04:27.673Z,0.93
2017-12-04T10:06:55.229Z,1.60
2017-12-04T10:09:22.697Z,1.60
2017-12-04T10:11:50.166Z,2.17
2017-12-04T10:14:17.621Z,1.70
2017-12-04T10:16:45.089Z,1.73
2017-12-04T10:19:12.557Z,0.80
2017-12-04T10:21:40.727Z,2.27
2017-12-04T10:24:08.146Z,2.23
2017-12-04T10:26:36.364Z,2.97
2017-12-04T10:29:03.789Z,1.87
2017-12-04T10:31:32.010Z,2.23
2017-12-04T10:33:59.466Z,1.73
2017-12-04T10:36:26.891Z,2.40
2017-12-04T10:38:55.102Z,2.20
2017-12-04T10:41:22.521Z,1.80
2017-12-04T10:43:50.737Z,0.90
2017-12-04T10:46:18.206Z,2.10
2017-12-04T10:48:45.679Z,1.40
2017-12-04T10:51:13.126Z,2.20
2017-12-04T10:53:40.562Z,1.17
2017-12-04T10:56:07.993Z,1.63
2017-12-04T10:58:35.409Z,1.23
2017-12-04T11:01:02.833Z,2.57
2017-12-04T11:03:31.030Z,2.30
2017-12-04T11:05:58.449Z,1.40
2017-12-04T11:08:25.874Z,2.07
2017-12-04T11:10:53.297Z,2.00
2017-12-04T11:13:20.725Z,2.07
2017-12-04T11:15:48.241Z,2.57
2017-12-04T11:18:15.713Z,1.97
2017-12-04T11:20:43.189Z,2.00
2017-12-04T11:23:10.634Z,1.83
2017-12-04T11:25:38.049Z,2.23
2017-12-04T11:28:06.254Z,2.00
2017-12-04T11:30:33.828Z,1.23
2017-12-04T11:33:01.256Z,3.03
2017-12-04T11:35:28.655Z,1.83
2017-12-04T11:37:56.122Z,1.83
2017-12-04T11:40:24.141Z,1.83
2017-12-04T11:42:51.562Z,1.33
2017-12-04T11:45:19.516Z,1.50
2017-12-04T11:47:46.976Z,1.70
2017-12-04T11:50:15.173Z,1.43
2017-12-04T11:52:42.686Z,0.80
2017-12-04T11:55:10.890Z,1.33
2017-12-04T11:57:38.354Z,0.60
2017-12-04T12:00:05.830Z,0.60
2017-12-04T12:02:33.245Z,1.07
2017-12-04T12:05:01.560Z,1.70
2017-12-04T12:07:29.021Z,2.33
2017-12-04T12:09:56.506Z,1.23
2017-12-04T12:12:23.936Z,1.10
2017-12-04T12:14:51.362Z,0.70
2017-12-04T12:17:18.782Z,1.30
2017-12-04T12:19:46.238Z,1.13
2017-12-04T12:22:13.666Z,2.00
2017-12-04T12:24:41.877Z,1.23
2017-12-04T12:27:09.337Z,0.83
2017-12-04T12:29:36.799Z,1.03
2017-12-04T12:32:04.221Z,1.40
2017-12-04T12:34:32.532Z,2.13
2017-12-04T12:37:00.093Z,1.10
2017-12-04T12:39:27.657Z,1.60
2017-12-04T12:41:55.058Z,1.53
2017-12-04T12:44:22.581Z,1.30
2017-12-04T12:46:50.054Z,0.97
2017-12-04T12:49:17.487Z,1.20
2017-12-04T12:51:44.914Z,2.03
2017-12-04T12:54:12.350Z,1.53
2017-12-04T12:56:39.897Z,2.20
2017-12-04T12:59:07.321Z,2.50
2017-12-04T13:01:35.548Z,2.40
2017-12-04T13:04:02.988Z,1.97
2017-12-04T13:06:30.410Z,1.77
2017-12-04T13:08:58.735Z,1.67
2017-12-04T13:11:26.206Z,1.60
2017-12-04T13:13:53.674Z,1.53
2017-12-04T13:16:21.125Z,2.67
2017-12-04T13:18:48.558Z,1.93
2017-12-04T13:21:15.974Z,1.40
2017-12-04T13:23:43.401Z,0.80
2017-12-04T13:26:10.820Z,1.97
2017-12-04T13:28:39.013Z,2.03
2017-12-04T13:31:06.441Z,2.50
2017-12-04T13:33:45.802Z,1.67
2017-12-04T13:36:25.840Z,2.00
2017-12-04T13:38:54.030Z,1.57
2017-12-04T13:41:22.232Z,2.20
2017-12-04T13:43:49.648Z,1.00
2017-12-04T13:46:17.165Z,1.93
2017-12-04T13:48:44.621Z,1.43
2017-12-04T13:51:12.076Z,1.40
2017-12-04T13:53:39.482Z,2.10
2017-12-04T13:56:06.906Z,0.90
2017-12-04T13:58:34.329Z,1.83
2017-12-04T14:01:02.521Z,1.77
2017-12-04T14:03:29.948Z,0.70
2017-12-04T14:05:57.382Z,1.23
2017-12-04T14:08:24.920Z,1.40
2017-12-04T14:10:52.332Z,1.93
2017-12-04T14:13:20.425Z,1.70
2017-12-04T14:15:48.653Z,1.03
2017-12-04T14:18:16.080Z,1.60
2017-12-04T14:20:43.502Z,1.73
2017-12-04T14:23:11.025Z,1.10
2017-12-04T14:25:38.458Z,1.50
2017-12-04T14:28:05.906Z,1.90
2017-12-04T14:30:34.114Z,1.30
2017-12-04T14:33:01.681Z,1.33
2017-12-04T14:35:29.154Z,1.07
2017-12-04T14:37:56.645Z,1.10
2017-12-04T14:40:24.073Z,0.97
2017-12-04T14:42:51.489Z,0.97
2017-12-04T14:45:19.713Z,0.90
2017-12-04T14:47:47.184Z,0.57
2017-12-04T14:50:14.605Z,0.80
2017-12-04T14:52:42.786Z,2.00
2017-12-04T14:55:10.210Z,0.60
2017-12-04T14:57:37.829Z,1.60
2017-12-04T15:00:06.035Z,1.80
2017-12-04T15:02:33.485Z,2.20
2017-12-04T15:05:00.910Z,1.47
2017-12-04T15:07:28.345Z,1.03
2017-12-04T15:09:55.782Z,1.03
2017-12-04T15:12:23.566Z,1.10
2017-12-04T15:14:51.009Z,1.20
2017-12-04T15:17:18.447Z,1.20
2017-12-04T15:19:45.928Z,0.80
2017-12-04T15:22:13.345Z,2.23
2017-12-04T15:24:41.653Z,1.87
2017-12-04T15:27:09.074Z,0.97
2017-12-04T15:29:37.278Z,1.63
2017-12-04T15:32:04.706Z,1.90
2017-12-04T15:34:32.121Z,1.27
2017-12-04T15:36:59.551Z,1.80
2017-12-04T15:39:27.040Z,2.30
2017-12-04T15:41:54.462Z,1.40
2017-12-04T15:44:22.663Z,1.43
2017-12-04T15:46:50.138Z,1.23
2017-12-04T15:49:17.599Z,1.23
2017-12-04T15:51:45.045Z,0.87
2017-12-04T15:54:13.235Z,1.90
2017-12-04T15:56:41.200Z,1.33
2017-12-04T15:59:08.606Z,1.10
2017-12-04T16:01:36.025Z,2.10
2017-12-04T16:04:03.441Z,1.53
2017-12-04T16:06:31.677Z,1.13
2017-12-04T16:08:59.092Z,1.47
2017-12-04T16:11:27.310Z,1.70
2017-12-04T16:13:54.765Z,1.77
2017-12-04T16:16:22.323Z,2.40
2017-12-04T16:18:49.783Z,2.07
2017-12-04T16:21:17.245Z,2.93
2017-12-04T16:23:45.409Z,2.10
2017-12-04T16:26:12.899Z,2.57
2017-12-04T16:28:40.366Z,2.83
2017-12-04T16:31:07.850Z,1.90
2017-12-04T16:33:36.038Z,2.53
2017-12-04T16:36:03.473Z,2.60
2017-12-04T16:38:30.891Z,2.30
2017-12-04T16:40:58.313Z,1.20
2017-12-04T16:43:25.739Z,2.50
2017-12-04T16:45:53.204Z,2.90
2017-12-04T16:48:20.633Z,1.97
2017-12-04T16:50:48.057Z,2.20
2017-12-04T16:53:15.477Z,1.30
2017-12-04T16:55:42.902Z,2.00
2017-12-04T16:58:11.094Z,2.07
2017-12-04T17:00:38.528Z,2.80
2017-12-04T17:03:05.982Z,2.83
2017-12-04T17:05:34.925Z,3.63
2017-12-04T17:08:02.347Z,1.63
2017-12-04T17:10:29.862Z,2.77
2017-12-04T17:12:57.338Z,2.33
2017-12-04T17:15:24.820Z,1.90
2017-12-04T17:17:52.233Z,1.73
2017-12-04T17:20:19.724Z,1.67
2017-12-04T17:22:47.122Z,1.60
2017-12-04T17:25:15.350Z,1.40
2017-12-04T17:27:42.790Z,1.37
2017-12-04T17:30:10.216Z,1.43
2017-12-04T17:32:37.640Z,2.00
2017-12-04T17:35:05.053Z,2.67
2017-12-04T17:37:33.269Z,1.63
2017-12-04T17:40:00.734Z,2.23
2017-12-04T17:42:28.161Z,1.80
2017-12-04T17:44:55.654Z,1.13
2017-12-04T17:47:23.081Z,2.13
2017-12-04T17:49:50.573Z,2.00
2017-12-04T17:52:18.013Z,1.43
2017-12-04T17:54:45.435Z,2.03
2017-12-04T17:57:13.631Z,2.10
2017-12-04T17:59:41.814Z,2.03
2017-12-04T18:02:10.032Z,2.00
2017-12-04T18:04:37.497Z,1.87
2017-12-04T18:07:04.939Z,1.43
2017-12-04T18:09:32.414Z,2.10
2017-12-04T18:11:59.873Z,1.13
2017-12-04T18:14:27.282Z,1.73
2017-12-04T18:16:55.470Z,1.33
2017-12-04T18:19:23.654Z,1.93
2017-12-04T18:21:51.892Z,2.40
2017-12-04T18:24:19.325Z,1.90
2017-12-04T18:26:46.780Z,1.03
2017-12-04T18:29:14.178Z,1.73
2017-12-04T18:31:41.718Z,1.77
2017-12-04T18:34:09.165Z,1.23
2017-12-04T18:36:36.640Z,2.93
2017-12-04T18:39:04.057Z,1.00
2017-12-04T18:41:32.278Z,1.70
2017-12-04T18:43:59.774Z,1.07
2017-12-04T18:46:27.201Z,1.60
2017-12-04T18:48:54.639Z,2.03
2017-12-04T18:51:22.063Z,1.87
2017-12-04T18:53:49.477Z,1.33
2017-12-04T18:56:16.901Z,1.60
2017-12-04T18:58:45.090Z,1.43
2017-12-04T19:01:12.516Z,1.40
2017-12-04T19:03:39.938Z,1.20
2017-12-04T19:06:07.493Z,2.23
2017-12-04T19:08:34.905Z,2.77
2017-12-04T19:11:02.341Z,1.70
2017-12-04T19:13:29.799Z,1.30
2017-12-04T19:15:57.218Z,1.73
2017-12-04T19:18:24.803Z,1.10
2017-12-04T19:20:52.242Z,1.40
2017-12-04T19:23:20.456Z,1.87
2017-12-04T19:25:47.873Z,1.70
2017-12-04T19:28:16.098Z,2.07
2017-12-04T19:30:43.582Z,4.67
2017-12-04T19:33:11.025Z,3.43
2017-12-04T19:35:38.471Z,1.63
2017-12-04T19:38:05.900Z,1.97
2017-12-04T19:40:34.092Z,4.27
2017-12-04T19:43:01.565Z,2.40
2017-12-04T19:45:29.021Z,2.87
2017-12-04T19:47:56.499Z,3.27
2017-12-04T19:50:23.958Z,2.30
2017-12-04T19:52:51.385Z,1.77
2017-12-04T19:55:18.877Z,3.30
2017-12-04T19:57:46.386Z,3.20
2017-12-04T20:00:13.805Z,2.80
2017-12-04T20:02:41.269Z,1.80
2017-12-04T20:05:08.689Z,2.37
2017-12-04T20:07:36.922Z,2.33
2017-12-04T20:10:04.341Z,2.33
2017-12-04T20:12:31.797Z,2.73
2017-12-04T20:14:59.969Z,2.67
2017-12-04T20:17:28.167Z,2.03
2017-12-04T20:19:55.572Z,1.50
2017-12-04T20:22:23.101Z,1.17
2017-12-04T20:24:50.522Z,2.50
2017-12-04T20:27:18.739Z,3.40
2017-12-04T20:29:46.207Z,1.77
2017-12-04T20:32:13.754Z,1.97
2017-12-04T20:34:41.320Z,2.80
2017-12-04T20:37:08.726Z,2.40
2017-12-04T20:39:36.152Z,2.27
2017-12-04T20:42:03.626Z,1.97
2017-12-04T20:44:31.054Z,2.97
2017-12-04T20:46:58.473Z,2.83
2017-12-04T20:49:26.006Z,1.13
2017-12-04T20:51:53.464Z,1.83
2017-12-04T20:54:20.920Z,1.80
2017-12-04T20:56:48.368Z,1.50
2017-12-04T20:59:15.931Z,1.47
2017-12-04T21:01:43.339Z,1.97
2017-12-04T21:04:10.880Z,1.87
2017-12-04T21:06:38.325Z,2.60
2017-12-04T21:09:17.533Z,2.47
2017-12-04T21:11:48.462Z,1.57
2017-12-04T21:14:28.437Z,2.03
2017-12-04T21:17:07.858Z,2.03
2017-12-04T21:19:35.349Z,2.80
2017-12-04T21:22:02.761Z,2.07
2017-12-04T21:24:30.982Z,1.53
2017-12-04T21:26:58.471Z,2.50
2017-12-04T21:29:25.918Z,1.87
2017-12-04T21:31:53.367Z,2.47
2017-12-04T21:34:20.831Z,3.70
2017-12-04T21:36:48.279Z,1.73
2017-12-04T21:39:15.689Z,2.17
2017-12-04T21:41:43.206Z,1.70
2017-12-04T21:44:10.633Z,1.37
2017-12-04T21:46:38.066Z,2.93
2017-12-04T21:49:05.499Z,2.43
2017-12-04T21:51:32.921Z,3.27
2017-12-04T21:54:00.381Z,2.57
2017-12-04T21:56:28.593Z,2.03
2017-12-04T21:58:56.045Z,3.13
2017-12-04T22:01:23.603Z,3.10
2017-12-04T22:03:51.005Z,2.73
2017-12-04T22:06:18.442Z,3.27
2017-12-04T22:08:45.894Z,2.53
2017-12-04T22:11:13.365Z,3.20
2017-12-04T22:13:40.817Z,2.60
2017-12-04T22:16:08.245Z,3.87
2017-12-04T22:18:36.435Z,3.53
2017-12-04T22:21:03.849Z,4.13
2017-12-04T22:23:31.277Z,4.13
2017-12-04T22:25:58.698Z,4.23
2017-12-04T22:28:27.008Z,3.47
2017-12-04T22:30:54.409Z,3.60
2017-12-04T22:33:21.937Z,4.30
2017-12-04T22:35:49.361Z,3.90
2017-12-04T22:38:17.581Z,4.30
2017-12-04T22:40:45.041Z,2.90
2017-12-04T22:43:12.478Z,3.70
2017-12-04T22:45:39.920Z,4.10
2017-12-04T22:48:07.329Z,4.63
2017-12-04T22:50:34.785Z,6.07
2017-12-04T22:53:02.269Z,2.80
2017-12-04T22:55:29.758Z,6.20
2017-12-04T22:57:57.130Z,5.20
2017-12-04T23:00:30.350Z,5.90
2017-12-04T23:02:58.558Z,7.30
2017-12-04T23:05:26.019Z,3.53
2017-12-04T23:07:53.422Z,5.13
2017-12-04T23:10:23.585Z,4.53
2017-12-04T23:12:50.984Z,4.60
2017-12-04T23:15:18.435Z,4.63
2017-12-04T23:17:45.870Z,5.00
2017-12-04T23:20:13.326Z,5.87
2017-12-04T23:22:40.750Z,4.67
2017-12-04T23:25:08.937Z,4.30
2017-12-04T23:27:36.428Z,4.47
2017-12-04T23:30:03.894Z,5.97
2017-12-04T23:32:31.308Z,5.13
2017-12-04T23:34:59.506Z,5.03
2017-12-04T23:37:26.925Z,4.73
2017-12-04T23:39:54.504Z,5.57
2017-12-04T23:42:22.698Z,6.77
2017-12-04T23:44:50.895Z,6.43
2017-12-04T23:47:18.341Z,4.53
2017-12-04T23:49:45.921Z,6.27
2017-12-04T23:52:13.317Z,5.77
2017-12-04T23:54:40.852Z,7.53
2017-12-04T23:57:08.287Z,8.30
2017-12-04T23:59:36.489Z,7.90
